Time;durP1;ratioP1;P1;durP2;ratioP2;P2;SDS_P1;SDS_P2;PMS_P1;PMS_P2;Temp;Humidity;BMP_temperature;BMP_pressure;BME280_temperature;BME280_humidity;BME280_pressure;Samples;Min_cycle;Max_cycle;Signal;HPM_P1;HPM_P2
2022/03/08 00:01:28;;;;;;;13.00;10.03;;;;;;;;;;5054269;28;20246;-54
2022/03/08 00:03:55;;;;;;;12.00;9.90;;;;;;;;;;5054178;28;20526;-54
2022/03/08 00:06:21;;;;;;;14.97;11.07;;;;;;;;;;5053904;28;20439;-53
2022/03/08 00:08:47;;;;;;;16.47;11.10;;;;;;;;;;5054135;28;20479;-53
2022/03/08 00:11:16;;;;;;;11.97;10.33;;;;;;;;;;5054024;28;20940;-53
2022/03/08 00:13:42;;;;;;;13.67;10.23;;;;;;;;;;5054216;28;20431;-53
2022/03/08 00:16:08;;;;;;;14.40;9.80;;;;;;;;;;5053916;28;20453;-53
2022/03/08 00:18:35;;;;;;;11.47;9.97;;;;;;;;;;5053716;28;20442;-53
2022/03/08 00:21:02;;;;;;;15.67;9.83;;;;;;;;;;5053746;28;20189;-52
2022/03/08 00:23:28;;;;;;;11.80;9.80;;;;;;;;;;5053954;28;20478;-53
2022/03/08 00:25:54;;;;;;;13.67;10.43;;;;;;;;;;5053576;28;20466;-52
2022/03/08 00:28:20;;;;;;;12.77;9.60;;;;;;;;;;5053706;28;20254;-53
2022/03/08 00:30:46;;;;;;;14.23;10.67;;;;;;;;;;5053694;28;20831;-52
2022/03/08 00:33:12;;;;;;;13.13;10.20;;;;;;;;;;5053685;28;20442;-52
2022/03/08 00:35:38;;;;;;;14.20;10.17;;;;;;;;;;5053736;28;20616;-52
2022/03/08 00:38:05;;;;;;;12.30;9.10;;;;;;;;;;5053514;28;20201;-52
2022/03/08 00:40:31;;;;;;;15.97;10.30;;;;;;;;;;5053632;28;20455;-52
2022/03/08 00:42:57;;;;;;;13.70;9.90;;;;;;;;;;5053443;28;20504;-51
2022/03/08 00:45:23;;;;;;;14.23;9.63;;;;;;;;;;5053354;28;20936;-51
2022/03/08 00:47:50;;;;;;;12.67;10.03;;;;;;;;;;5053264;28;20443;-51
2022/03/08 00:50:17;;;;;;;13.83;9.87;;;;;;;;;;5053343;28;20475;-52
2022/03/08 00:52:43;;;;;;;14.53;10.57;;;;;;;;;;5053353;28;20442;-52
2022/03/08 00:55:11;;;;;;;16.30;10.90;;;;;;;;;;5053175;28;20501;-52
2022/03/08 00:57:37;;;;;;;13.73;9.47;;;;;;;;;;5053360;28;20434;-51
2022/03/08 01:00:05;;;;;;;14.20;9.93;;;;;;;;;;5053157;28;20435;-52
2022/03/08 01:02:31;;;;;;;11.93;9.40;;;;;;;;;;5052927;28;20964;-51
2022/03/08 01:04:57;;;;;;;16.17;9.60;;;;;;;;;;5052859;28;20539;-52
2022/03/08 01:07:23;;;;;;;12.73;9.47;;;;;;;;;;5052705;28;20434;-52
2022/03/08 01:09:49;;;;;;;13.27;9.87;;;;;;;;;;5052818;28;20254;-53
2022/03/08 01:12:16;;;;;;;12.27;9.50;;;;;;;;;;5052849;28;20200;-53
2022/03/08 01:14:42;;;;;;;15.13;10.53;;;;;;;;;;5052876;28;20443;-53
2022/03/08 01:17:08;;;;;;;13.50;10.07;;;;;;;;;;5052603;28;20438;-53
2022/03/08 01:19:34;;;;;;;13.00;10.47;;;;;;;;;;5052787;28;20188;-53
2022/03/08 01:22:00;;;;;;;16.57;10.53;;;;;;;;;;5052648;28;20654;-53
2022/03/08 01:24:28;;;;;;;16.10;10.97;;;;;;;;;;5052677;28;20569;-53
2022/03/08 01:26:54;;;;;;;12.97;10.13;;;;;;;;;;5052522;28;20549;-53
2022/03/08 01:29:23;;;;;;;14.30;10.57;;;;;;;;;;5052325;28;20936;-53
2022/03/08 01:31:49;;;;;;;14.20;9.77;;;;;;;;;;5052118;28;20208;-53
2022/03/08 01:34:15;;;;;;;14.53;10.33;;;;;;;;;;5052413;28;21007;-53
2022/03/08 01:36:41;;;;;;;14.73;10.50;;;;;;;;;;5052475;28;20239;-53
2022/03/08 01:39:07;;;;;;;14.97;11.20;;;;;;;;;;5052537;28;20197;-54
2022/03/08 01:41:33;;;;;;;13.63;10.70;;;;;;;;;;5052533;28;20435;-53
2022/03/08 01:43:59;;;;;;;17.23;11.70;;;;;;;;;;5052445;28;20497;-53
2022/03/08 01:46:27;;;;;;;14.77;10.80;;;;;;;;;;5052151;28;20439;-53
2022/03/08 01:48:53;;;;;;;15.17;10.53;;;;;;;;;;5052276;28;20462;-53
2022/03/08 01:51:19;;;;;;;14.20;10.97;;;;;;;;;;5051982;28;21028;-53
2022/03/08 01:53:46;;;;;;;13.30;10.33;;;;;;;;;;5052253;28;20453;-53
2022/03/08 01:56:13;;;;;;;17.30;10.80;;;;;;;;;;5052049;28;20966;-53
2022/03/08 01:58:39;;;;;;;14.57;11.23;;;;;;;;;;5051952;28;20529;-53
2022/03/08 02:01:06;;;;;;;12.67;9.73;;;;;;;;;;5051655;28;20990;-53
2022/03/08 02:03:34;;;;;;;14.17;10.97;;;;;;;;;;5052091;28;20438;-53
2022/03/08 02:06:00;;;;;;;16.07;11.10;;;;;;;;;;5051945;28;20956;-53
2022/03/08 02:08:26;;;;;;;14.53;10.30;;;;;;;;;;5051940;28;20522;-53
2022/03/08 02:10:53;;;;;;;11.57;9.73;;;;;;;;;;5052114;28;20496;-53
2022/03/08 02:13:19;;;;;;;14.10;10.23;;;;;;;;;;5051982;28;20438;-53
2022/03/08 02:15:48;;;;;;;13.10;9.97;;;;;;;;;;5051995;28;20451;-53
2022/03/08 02:18:14;;;;;;;11.63;9.60;;;;;;;;;;5051981;28;20446;-53
2022/03/08 02:20:42;;;;;;;13.80;9.77;;;;;;;;;;5051988;28;20438;-53
2022/03/08 02:23:09;;;;;;;14.47;10.57;;;;;;;;;;5051770;28;20476;-53
2022/03/08 02:25:35;;;;;;;13.80;10.07;;;;;;;;;;5051798;28;20438;-53
2022/03/08 02:28:01;;;;;;;13.20;9.73;;;;;;;;;;5051932;28;20438;-53
2022/03/08 02:30:28;;;;;;;15.20;10.43;;;;;;;;;;5051783;28;20493;-53
2022/03/08 02:32:54;;;;;;;13.67;10.27;;;;;;;;;;5051869;28;20431;-53
2022/03/08 02:35:21;;;;;;;14.17;10.50;;;;;;;;;;5051698;28;20457;-53
2022/03/08 02:37:50;;;;;;;13.27;9.70;;;;;;;;;;5051874;28;20530;-53
2022/03/08 02:40:18;;;;;;;13.07;9.57;;;;;;;;;;5051769;28;20518;-53
2022/03/08 02:42:45;;;;;;;14.27;9.90;;;;;;;;;;5051883;28;20862;-53
2022/03/08 02:45:11;;;;;;;13.17;9.87;;;;;;;;;;5055173;28;20933;-53
2022/03/08 02:47:37;;;;;;;15.60;10.73;;;;;;;;;;5055519;28;20471;-53
2022/03/08 02:50:05;;;;;;;14.67;9.63;;;;;;;;;;5055581;28;20531;-53
2022/03/08 02:52:31;;;;;;;14.43;10.27;;;;;;;;;;5055683;28;20439;-53
2022/03/08 02:54:57;;;;;;;14.07;11.30;;;;;;;;;;5055560;28;20913;-53
2022/03/08 02:57:25;;;;;;;14.03;9.87;;;;;;;;;;5055503;28;20429;-53
2022/03/08 02:59:51;;;;;;;15.90;10.50;;;;;;;;;;5055528;28;20297;-53
2022/03/08 03:02:17;;;;;;;14.83;11.13;;;;;;;;;;5055407;28;20430;-53
2022/03/08 03:04:43;;;;;;;14.93;10.70;;;;;;;;;;5055593;28;20604;-53
2022/03/08 03:07:09;;;;;;;14.87;10.30;;;;;;;;;;5055215;28;20196;-53
2022/03/08 03:09:35;;;;;;;16.00;11.03;;;;;;;;;;5055163;28;20485;-53
2022/03/08 03:12:01;;;;;;;14.60;10.57;;;;;;;;;;5055241;28;20703;-53
2022/03/08 03:14:28;;;;;;;14.57;10.17;;;;;;;;;;5055199;28;20521;-53
2022/03/08 03:16:54;;;;;;;14.33;10.67;;;;;;;;;;5054958;28;20925;-53
2022/03/08 03:19:20;;;;;;;13.67;10.33;;;;;;;;;;5055008;28;20449;-52
2022/03/08 03:21:46;;;;;;;13.00;9.87;;;;;;;;;;5055210;28;20201;-53
2022/03/08 03:24:12;;;;;;;14.73;11.03;;;;;;;;;;5054975;28;20478;-53
2022/03/08 03:26:38;;;;;;;16.60;11.00;;;;;;;;;;5054840;28;20481;-53
2022/03/08 03:29:04;;;;;;;12.73;10.47;;;;;;;;;;5054734;28;21040;-53
2022/03/08 03:31:31;;;;;;;13.80;10.70;;;;;;;;;;5054832;28;20208;-52
2022/03/08 03:33:57;;;;;;;12.70;9.70;;;;;;;;;;5054957;28;20617;-53
2022/03/08 03:36:23;;;;;;;13.67;10.47;;;;;;;;;;5054679;28;20430;-53
2022/03/08 03:38:49;;;;;;;12.97;9.47;;;;;;;;;;5054818;28;20196;-53
2022/03/08 03:41:15;;;;;;;12.07;9.17;;;;;;;;;;5053033;28;20492;-53
2022/03/08 03:43:41;;;;;;;14.93;10.13;;;;;;;;;;5054798;28;20196;-53
2022/03/08 03:46:08;;;;;;;15.67;10.47;;;;;;;;;;5054474;28;20786;-53
2022/03/08 03:48:36;;;;;;;15.90;9.83;;;;;;;;;;5054706;28;20204;-53
2022/03/08 03:51:02;;;;;;;14.17;10.57;;;;;;;;;;5054606;28;20477;-53
2022/03/08 03:53:28;;;;;;;15.83;10.47;;;;;;;;;;5054461;28;20431;-53
2022/03/08 03:55:54;;;;;;;14.30;10.03;;;;;;;;;;5053807;28;20437;-52
2022/03/08 03:58:20;;;;;;;12.57;10.03;;;;;;;;;;5054353;28;20200;-53
2022/03/08 04:00:46;;;;;;;15.63;10.63;;;;;;;;;;5054483;28;20862;-53
2022/03/08 04:03:15;;;;;;;13.77;10.00;;;;;;;;;;5054240;28;21015;-53
2022/03/08 04:05:42;;;;;;;14.13;9.87;;;;;;;;;;5054466;28;20431;-53
2022/03/08 04:08:08;;;;;;;13.43;9.37;;;;;;;;;;5054165;28;20453;-53
2022/03/08 04:10:34;;;;;;;11.60;9.10;;;;;;;;;;5054200;28;20470;-52
2022/03/08 04:13:00;;;;;;;13.60;9.83;;;;;;;;;;5054184;28;20439;-53
2022/03/08 04:15:26;;;;;;;16.13;9.93;;;;;;;;;;5054034;28;20224;-53
2022/03/08 04:17:52;;;;;;;15.30;10.47;;;;;;;;;;5054104;28;20257;-52
2022/03/08 04:20:18;;;;;;;16.93;10.40;;;;;;;;;;5053881;28;20461;-53
2022/03/08 04:22:45;;;;;;;16.93;10.90;;;;;;;;;;5053997;28;20446;-53
2022/03/08 04:25:11;;;;;;;14.83;10.10;;;;;;;;;;5053893;28;20200;-52
2022/03/08 04:27:37;;;;;;;12.70;10.30;;;;;;;;;;5053660;28;20500;-52
2022/03/08 04:30:04;;;;;;;13.87;9.80;;;;;;;;;;5053546;28;20470;-53
2022/03/08 04:32:30;;;;;;;14.27;9.83;;;;;;;;;;5053921;28;20522;-52
2022/03/08 04:34:56;;;;;;;13.63;9.00;;;;;;;;;;5053811;28;20450;-52
2022/03/08 04:37:22;;;;;;;13.10;9.13;;;;;;;;;;5053553;28;20492;-53
2022/03/08 04:39:50;;;;;;;13.93;9.97;;;;;;;;;;5053719;28;20196;-52
2022/03/08 04:42:16;;;;;;;14.80;9.37;;;;;;;;;;5053554;28;20488;-52
2022/03/08 04:44:42;;;;;;;13.50;9.43;;;;;;;;;;5053604;28;20485;-52
2022/03/08 04:47:08;;;;;;;14.73;10.03;;;;;;;;;;5053367;28;20434;-52
2022/03/08 04:49:34;;;;;;;16.63;10.57;;;;;;;;;;5053271;28;21050;-52
2022/03/08 04:52:00;;;;;;;14.37;9.13;;;;;;;;;;5053550;28;20514;-52
2022/03/08 04:54:26;;;;;;;13.33;9.57;;;;;;;;;;5053396;28;20880;-51
2022/03/08 04:56:53;;;;;;;12.93;9.40;;;;;;;;;;5053559;28;20431;-52
2022/03/08 04:59:19;;;;;;;12.03;9.43;;;;;;;;;;5053143;28;20200;-51
2022/03/08 05:01:45;;;;;;;14.77;9.23;;;;;;;;;;5053289;28;20538;-52
2022/03/08 05:04:11;;;;;;;11.80;9.63;;;;;;;;;;5053037;28;20477;-51
2022/03/08 05:06:37;;;;;;;14.67;9.87;;;;;;;;;;5052522;28;20439;-52
2022/03/08 05:09:03;;;;;;;13.20;9.10;;;;;;;;;;5052543;28;20482;-58
2022/03/08 05:11:29;;;;;;;13.50;10.00;;;;;;;;;;5053079;28;20201;-52
2022/03/08 05:13:57;;;;;;;13.73;10.03;;;;;;;;;;5053055;28;20435;-52
2022/03/08 05:16:23;;;;;;;13.90;8.90;;;;;;;;;;5052712;28;20431;-53
2022/03/08 05:18:49;;;;;;;14.30;9.93;;;;;;;;;;5052926;28;20792;-53
2022/03/08 05:21:15;;;;;;;14.60;9.63;;;;;;;;;;5052838;28;20246;-53
2022/03/08 05:23:41;;;;;;;17.40;9.67;;;;;;;;;;5052850;28;20546;-53
2022/03/08 05:26:07;;;;;;;14.13;8.87;;;;;;;;;;5052597;28;20562;-53
2022/03/08 05:28:33;;;;;;;15.30;9.60;;;;;;;;;;5052399;28;20446;-53
2022/03/08 05:31:01;;;;;;;14.97;9.80;;;;;;;;;;5052435;28;20474;-52
2022/03/08 05:33:27;;;;;;;12.13;9.10;;;;;;;;;;5052428;28;20921;-52
2022/03/08 05:35:53;;;;;;;12.83;8.87;;;;;;;;;;5052466;28;21261;-53
2022/03/08 05:38:19;;;;;;;14.30;10.37;;;;;;;;;;5052381;28;20447;-53
2022/03/08 05:40:45;;;;;;;14.00;9.93;;;;;;;;;;5052539;28;20596;-53
2022/03/08 05:43:11;;;;;;;13.20;9.93;;;;;;;;;;5052362;28;20442;-53
2022/03/08 05:45:37;;;;;;;15.77;10.00;;;;;;;;;;5052360;28;20434;-52
2022/03/08 05:48:05;;;;;;;13.43;10.10;;;;;;;;;;5052248;28;20537;-53
2022/03/08 05:50:31;;;;;;;13.63;9.43;;;;;;;;;;5052317;28;20578;-53
2022/03/08 05:52:57;;;;;;;13.53;10.33;;;;;;;;;;5052398;28;20525;-53
2022/03/08 05:55:23;;;;;;;12.40;9.40;;;;;;;;;;5052119;28;20200;-53
2022/03/08 05:57:49;;;;;;;11.77;9.73;;;;;;;;;;5052094;28;20258;-53
2022/03/08 06:00:15;;;;;;;14.43;9.57;;;;;;;;;;5052094;28;20953;-52
2022/03/08 06:02:41;;;;;;;14.03;10.43;;;;;;;;;;5052254;28;20435;-52
2022/03/08 06:05:09;;;;;;;13.90;10.43;;;;;;;;;;5052075;28;20435;-53
2022/03/08 06:07:35;;;;;;;15.70;9.93;;;;;;;;;;5051973;28;20936;-53
2022/03/08 06:10:01;;;;;;;14.70;10.47;;;;;;;;;;5052070;28;20481;-52
2022/03/08 06:12:27;;;;;;;14.40;9.67;;;;;;;;;;5052013;28;20188;-53
2022/03/08 06:14:53;;;;;;;16.33;10.67;;;;;;;;;;5051817;28;20446;-52
2022/03/08 06:17:19;;;;;;;14.97;10.33;;;;;;;;;;5051345;28;20925;-53
2022/03/08 06:19:45;;;;;;;15.73;11.00;;;;;;;;;;5051380;28;20484;-52
2022/03/08 06:22:13;;;;;;;19.10;13.33;;;;;;;;;;5051777;28;20558;-53
2022/03/08 06:24:39;;;;;;;18.23;11.40;;;;;;;;;;5051716;28;20687;-53
2022/03/08 06:27:05;;;;;;;18.80;12.20;;;;;;;;;;5051649;28;20480;-51
2022/03/08 06:29:31;;;;;;;20.23;11.70;;;;;;;;;;5051852;28;20481;-53
2022/03/08 06:31:57;;;;;;;15.77;11.67;;;;;;;;;;5051800;28;20633;-53
2022/03/08 06:34:23;;;;;;;16.77;12.03;;;;;;;;;;5051621;28;20514;-53
2022/03/08 06:36:49;;;;;;;19.10;12.60;;;;;;;;;;5049980;28;20983;-54
2022/03/08 06:39:16;;;;;;;15.40;11.57;;;;;;;;;;5051686;28;20960;-53
2022/03/08 06:41:42;;;;;;;17.83;11.57;;;;;;;;;;5051771;28;20431;-54
2022/03/08 06:44:08;;;;;;;15.33;11.33;;;;;;;;;;5051221;28;20469;-53
2022/03/08 06:46:34;;;;;;;17.77;11.03;;;;;;;;;;5049630;28;20219;-54
2022/03/08 06:49:00;;;;;;;17.27;12.10;;;;;;;;;;5051530;28;20797;-53
2022/03/08 06:51:26;;;;;;;17.40;11.60;;;;;;;;;;5051437;28;20455;-52
2022/03/08 06:53:52;;;;;;;16.37;11.10;;;;;;;;;;5051579;28;20196;-52
2022/03/08 06:56:20;;;;;;;12.80;9.97;;;;;;;;;;5051515;28;20431;-53
2022/03/08 06:58:46;;;;;;;16.17;10.80;;;;;;;;;;5051614;28;20933;-53
2022/03/08 07:01:12;;;;;;;16.90;12.07;;;;;;;;;;5051348;28;20427;-53
2022/03/08 07:03:38;;;;;;;18.63;11.70;;;;;;;;;;5051645;28;20262;-53
2022/03/08 07:06:05;;;;;;;14.77;11.07;;;;;;;;;;5051305;28;20941;-52
2022/03/08 07:08:31;;;;;;;15.00;10.90;;;;;;;;;;5051345;28;20626;-53
2022/03/08 07:10:57;;;;;;;13.73;10.10;;;;;;;;;;5051228;28;20977;-52
2022/03/08 07:13:24;;;;;;;15.83;9.90;;;;;;;;;;5051117;28;20851;-53
2022/03/08 07:15:50;;;;;;;15.47;10.33;;;;;;;;;;5051242;28;20445;-53
2022/03/08 07:18:16;;;;;;;16.07;10.20;;;;;;;;;;5050927;28;20438;-53
2022/03/08 07:20:42;;;;;;;14.50;10.10;;;;;;;;;;5051208;28;20193;-53
2022/03/08 07:23:08;;;;;;;17.73;11.00;;;;;;;;;;5051087;28;20462;-52
2022/03/08 07:25:34;;;;;;;16.33;10.53;;;;;;;;;;5050863;28;20197;-52
2022/03/08 07:28:00;;;;;;;17.47;11.37;;;;;;;;;;5051369;28;20427;-51
2022/03/08 07:30:28;;;;;;;15.57;10.80;;;;;;;;;;5051645;28;20474;-51
2022/03/08 07:32:54;;;;;;;16.67;10.80;;;;;;;;;;5054703;28;20449;-52
2022/03/08 07:35:20;;;;;;;15.37;10.90;;;;;;;;;;5054659;28;20514;-53
2022/03/08 07:37:46;;;;;;;14.13;10.80;;;;;;;;;;5054805;28;20521;-51
2022/03/08 07:40:12;;;;;;;20.87;11.00;;;;;;;;;;5054643;28;20199;-52
2022/03/08 07:42:38;;;;;;;13.07;9.90;;;;;;;;;;5054699;28;20443;-52
2022/03/08 07:45:04;;;;;;;14.27;10.50;;;;;;;;;;5054478;28;20944;-52
2022/03/08 07:47:32;;;;;;;12.30;9.57;;;;;;;;;;5054548;28;20185;-52
2022/03/08 07:49:58;;;;;;;16.53;10.27;;;;;;;;;;5054456;28;20890;-51
2022/03/08 07:52:24;;;;;;;13.53;10.37;;;;;;;;;;5054349;28;20462;-52
2022/03/08 07:54:50;;;;;;;15.87;10.87;;;;;;;;;;5052738;28;20558;-52
2022/03/08 07:57:16;;;;;;;13.40;10.53;;;;;;;;;;5054399;28;20249;-52
2022/03/08 07:59:42;;;;;;;13.07;10.03;;;;;;;;;;5054241;28;20255;-52
2022/03/08 08:02:08;;;;;;;13.13;10.30;;;;;;;;;;5054174;28;20430;-52
2022/03/08 08:04:35;;;;;;;14.90;9.70;;;;;;;;;;5054280;28;20447;-51
2022/03/08 08:07:01;;;;;;;11.57;9.50;;;;;;;;;;5053904;28;20963;-52
2022/03/08 08:09:27;;;;;;;11.23;8.60;;;;;;;;;;5054031;28;21010;-52
2022/03/08 08:11:53;;;;;;;11.60;9.37;;;;;;;;;;5054138;28;20435;-52
2022/03/08 08:14:19;;;;;;;9.83;8.10;;;;;;;;;;5053871;28;20204;-52
2022/03/08 08:16:45;;;;;;;10.07;8.40;;;;;;;;;;5053803;28;20961;-52
2022/03/08 08:19:11;;;;;;;12.57;8.70;;;;;;;;;;5053908;28;20488;-52
2022/03/08 08:21:39;;;;;;;12.03;9.40;;;;;;;;;;5053960;28;20435;-52
2022/03/08 08:24:05;;;;;;;12.73;9.43;;;;;;;;;;5053776;28;20248;-51
2022/03/08 08:26:31;;;;;;;10.20;7.90;;;;;;;;;;5053654;28;20474;-53
2022/03/08 08:28:57;;;;;;;8.77;7.87;;;;;;;;;;5053852;28;20525;-53
2022/03/08 08:31:23;;;;;;;10.73;7.83;;;;;;;;;;5053549;28;20485;-55
2022/03/08 08:33:49;;;;;;;11.97;7.90;;;;;;;;;;5053738;28;20427;-54
2022/03/08 08:36:15;;;;;;;8.87;7.47;;;;;;;;;;5053674;28;20530;-52
2022/03/08 08:38:43;;;;;;;8.97;7.80;;;;;;;;;;5053820;28;20656;-53
2022/03/08 08:41:09;;;;;;;9.47;7.53;;;;;;;;;;5053345;28;20197;-55
2022/03/08 08:43:35;;;;;;;8.50;6.80;;;;;;;;;;5053467;28;20502;-53
2022/03/08 08:46:01;;;;;;;9.27;7.50;;;;;;;;;;5053403;28;21141;-54
2022/03/08 08:48:27;;;;;;;8.67;7.13;;;;;;;;;;5053478;28;20526;-53
2022/03/08 08:50:53;;;;;;;9.57;7.00;;;;;;;;;;5053189;28;20264;-53
2022/03/08 08:53:19;;;;;;;8.80;6.57;;;;;;;;;;5053222;28;20936;-55
2022/03/08 08:55:48;;;;;;;8.40;7.17;;;;;;;;;;5053256;28;20900;-55
2022/03/08 08:58:14;;;;;;;10.77;6.97;;;;;;;;;;5053230;28;20445;-54
2022/03/08 09:00:40;;;;;;;8.73;6.70;;;;;;;;;;5053056;28;20451;-57
2022/03/08 09:03:10;;;;;;;8.67;7.53;;;;;;;;;;5053134;28;20200;-56
2022/03/08 09:05:36;;;;;;;12.67;7.67;;;;;;;;;;5053068;28;20285;-55
2022/03/08 09:08:02;;;;;;;8.20;7.20;;;;;;;;;;5053154;28;20283;-56
2022/03/08 09:10:28;;;;;;;11.13;6.80;;;;;;;;;;5052811;28;20752;-56
2022/03/08 09:12:55;;;;;;;8.03;6.60;;;;;;;;;;5053056;28;20196;-56
2022/03/08 09:15:22;;;;;;;8.37;6.97;;;;;;;;;;5052663;28;20215;-56
2022/03/08 09:17:48;;;;;;;9.43;7.33;;;;;;;;;;5052871;28;20200;-58
2022/03/08 09:20:14;;;;;;;9.93;6.63;;;;;;;;;;5052803;28;20192;-56
2022/03/08 09:22:41;;;;;;;10.40;6.90;;;;;;;;;;5052417;28;20196;-56
2022/03/08 09:25:08;;;;;;;8.90;7.00;;;;;;;;;;5052673;28;20417;-55
2022/03/08 09:27:34;;;;;;;8.50;6.73;;;;;;;;;;5052419;28;20259;-55
2022/03/08 09:30:07;;;;;;;8.03;6.17;;;;;;;;;;5052387;28;20270;-58
2022/03/08 09:32:36;;;;;;;7.87;5.97;;;;;;;;;;5052597;28;20204;-55
2022/03/08 09:35:03;;;;;;;9.43;6.83;;;;;;;;;;5034464;28;20225;-56
2022/03/08 09:37:29;;;;;;;7.87;5.70;;;;;;;;;;5032398;28;20205;-56
2022/03/08 09:39:55;;;;;;;7.80;5.93;;;;;;;;;;5032337;28;20531;-56
2022/03/08 09:42:21;;;;;;;8.00;5.90;;;;;;;;;;5030990;28;20204;-56
2022/03/08 09:44:48;;;;;;;4.90;4.00;;;;;;;;;;5032446;28;20204;-57
2022/03/08 09:47:16;;;;;;;5.50;3.87;;;;;;;;;;5032256;28;20275;-57
2022/03/08 09:49:42;;;;;;;6.53;3.70;;;;;;;;;;5032300;28;20225;-56
2022/03/08 09:52:08;;;;;;;3.90;3.43;;;;;;;;;;5031758;28;20246;-56
2022/03/08 09:54:34;;;;;;;4.27;3.20;;;;;;;;;;5031846;28;20284;-56
2022/03/08 09:57:07;;;;;;;4.30;3.60;;;;;;;;;;5032319;28;20268;-55
2022/03/08 09:59:33;;;;;;;4.43;2.90;;;;;;;;;;5030680;28;20659;-55
2022/03/08 10:01:59;;;;;;;4.33;3.23;;;;;;;;;;5032369;28;20251;-55
2022/03/08 10:04:26;;;;;;;3.83;3.07;;;;;;;;;;5032077;28;20200;-56
2022/03/08 10:06:52;;;;;;;7.57;3.37;;;;;;;;;;5032097;28;20675;-56
2022/03/08 10:09:19;;;;;;;3.83;2.87;;;;;;;;;;5031968;28;20201;-56
2022/03/08 10:11:50;;;;;;;3.10;2.63;;;;;;;;;;5032317;28;20615;-55
2022/03/08 10:14:27;;;;;;;4.73;2.50;;;;;;;;;;5032094;28;20197;-55
2022/03/08 10:16:53;;;;;;;4.50;2.80;;;;;;;;;;5032190;28;20196;-57
2022/03/08 10:19:19;;;;;;;3.13;2.40;;;;;;;;;;5040526;28;20597;-58
2022/03/08 10:21:47;;;;;;;5.13;2.87;;;;;;;;;;5051800;28;20197;-58
2022/03/08 10:24:14;;;;;;;3.67;2.60;;;;;;;;;;5051742;28;20238;-57
2022/03/08 10:26:45;;;;;;;4.03;2.30;;;;;;;;;;5051692;28;20232;-58
2022/03/08 10:29:14;;;;;;;3.43;2.13;;;;;;;;;;5051312;28;20200;-59
2022/03/08 10:31:43;;;;;;;3.77;2.53;;;;;;;;;;5051720;28;20205;-58
2022/03/08 10:34:15;;;;;;;3.07;2.30;;;;;;;;;;5051712;28;20199;-58
2022/03/08 10:36:57;;;;;;;3.17;2.50;;;;;;;;;;5051755;28;20200;-58
2022/03/08 10:39:24;;;;;;;4.03;2.90;;;;;;;;;;5051594;28;20289;-58
2022/03/08 10:41:52;;;;;;;2.90;2.63;;;;;;;;;;5051594;28;20212;-57
2022/03/08 10:44:31;;;;;;;3.00;2.70;;;;;;;;;;5051537;28;20200;-57
2022/03/08 10:47:02;;;;;;;4.37;2.90;;;;;;;;;;5051776;28;20203;-57
2022/03/08 10:49:28;;;;;;;3.17;2.33;;;;;;;;;;5051242;28;20290;-57
2022/03/08 10:51:59;;;;;;;2.40;2.10;;;;;;;;;;5051220;28;20199;-57
2022/03/08 10:54:26;;;;;;;3.63;2.83;;;;;;;;;;5051448;28;20203;-57
2022/03/08 10:56:52;;;;;;;7.37;2.60;;;;;;;;;;5051483;28;20554;-57
2022/03/08 10:59:18;;;;;;;3.70;2.30;;;;;;;;;;5051255;28;20264;-57
2022/03/08 11:01:44;;;;;;;3.17;2.23;;;;;;;;;;5051422;28;20200;-57
2022/03/08 11:04:17;;;;;;;2.40;2.20;;;;;;;;;;5049708;28;20282;-56
2022/03/08 11:06:43;;;;;;;2.87;2.60;;;;;;;;;;5055382;28;20235;-56
2022/03/08 11:09:10;;;;;;;3.07;2.43;;;;;;;;;;5055154;28;20580;-56
2022/03/08 11:11:37;;;;;;;3.63;2.53;;;;;;;;;;5055040;28;20225;-56
2022/03/08 11:14:04;;;;;;;4.23;2.63;;;;;;;;;;5055207;28;20208;-56
2022/03/08 11:16:30;;;;;;;4.03;3.00;;;;;;;;;;5055124;28;20196;-56
2022/03/08 11:18:56;;;;;;;5.97;2.80;;;;;;;;;;5055180;28;20670;-56
2022/03/08 11:21:23;;;;;;;4.07;3.10;;;;;;;;;;5054993;28;20194;-57
2022/03/08 11:23:51;;;;;;;4.03;3.10;;;;;;;;;;5055050;28;20212;-56
2022/03/08 11:26:18;;;;;;;6.47;4.60;;;;;;;;;;5054880;28;20266;-56
2022/03/08 11:28:46;;;;;;;8.23;4.80;;;;;;;;;;5054974;28;20223;-59
2022/03/08 11:31:13;;;;;;;6.57;4.47;;;;;;;;;;5054869;28;20228;-56
2022/03/08 11:33:42;;;;;;;8.60;5.00;;;;;;;;;;5054726;28;20654;-55
2022/03/08 11:36:14;;;;;;;7.63;4.70;;;;;;;;;;5054492;28;20231;-57
2022/03/08 11:38:40;;;;;;;12.97;5.20;;;;;;;;;;5054626;28;20250;-57
2022/03/08 11:41:06;;;;;;;9.13;5.53;;;;;;;;;;5054716;28;20200;-57
2022/03/08 11:43:36;;;;;;;8.50;5.20;;;;;;;;;;5054531;28;20236;-57
2022/03/08 11:46:11;;;;;;;10.63;6.17;;;;;;;;;;5054672;28;20192;-57
2022/03/08 11:48:49;;;;;;;17.10;6.77;;;;;;;;;;5054602;28;20253;-56
2022/03/08 11:51:15;;;;;;;11.00;5.80;;;;;;;;;;5054476;28;20251;-55
2022/03/08 11:53:44;;;;;;;9.73;6.00;;;;;;;;;;5054413;28;20239;-56
2022/03/08 11:56:15;;;;;;;8.67;5.47;;;;;;;;;;5054460;28;20199;-56
2022/03/08 11:58:42;;;;;;;6.67;4.37;;;;;;;;;;5054461;28;20200;-56
2022/03/08 12:01:08;;;;;;;5.30;4.10;;;;;;;;;;5054479;28;20199;-57
2022/03/08 12:03:42;;;;;;;6.80;4.20;;;;;;;;;;5054217;28;20206;-57
2022/03/08 12:06:09;;;;;;;6.93;3.67;;;;;;;;;;5054281;28;20286;-55
2022/03/08 12:08:45;;;;;;;3.80;2.90;;;;;;;;;;5054225;28;20216;-57
2022/03/08 12:11:15;;;;;;;2.87;2.40;;;;;;;;;;5053929;28;20227;-57
2022/03/08 12:13:42;;;;;;;4.03;2.63;;;;;;;;;;5053872;28;20261;-57
2022/03/08 12:16:12;;;;;;;5.53;2.83;;;;;;;;;;5053093;28;20317;-57
2022/03/08 12:18:38;;;;;;;3.07;2.40;;;;;;;;;;5053921;28;20347;-57
2022/03/08 12:24:27;;;;;;;3.23;2.17;;;;;;;;;;5089201;28;20618;-55
2022/03/08 12:26:56;;;;;;;2.80;2.20;;;;;;;;;;5089122;28;20844;-57
2022/03/08 12:29:23;;;;;;;3.10;2.13;;;;;;;;;;5088479;28;20293;-57
2022/03/08 12:32:07;;;;;;;2.37;1.83;;;;;;;;;;5089093;28;20198;-56
2022/03/08 12:34:40;;;;;;;5.10;2.40;;;;;;;;;;5089056;28;20513;-56
2022/03/08 12:37:07;;;;;;;1.77;1.63;;;;;;;;;;5089200;28;20221;-57
2022/03/08 12:39:49;;;;;;;2.03;1.83;;;;;;;;;;5088745;28;20201;-58
2022/03/08 12:42:18;;;;;;;3.33;2.13;;;;;;;;;;5088762;28;20245;-58
2022/03/08 12:44:49;;;;;;;2.13;1.63;;;;;;;;;;5089010;28;20731;-56
2022/03/08 12:47:18;;;;;;;1.90;1.70;;;;;;;;;;5089080;28;20574;-55
2022/03/08 12:49:44;;;;;;;2.63;1.90;;;;;;;;;;5088876;28;20263;-58
2022/03/08 12:52:10;;;;;;;3.23;1.67;;;;;;;;;;5088624;28;20724;-58
2022/03/08 12:54:37;;;;;;;3.63;1.90;;;;;;;;;;5088536;28;20681;-58
2022/03/08 12:57:03;;;;;;;2.13;1.83;;;;;;;;;;5088854;28;20233;-58
2022/03/08 12:59:31;;;;;;;1.70;1.60;;;;;;;;;;5088545;28;20214;-58
2022/03/08 13:02:06;;;;;;;3.50;1.70;;;;;;;;;;5088533;28;20206;-59
2022/03/08 13:04:32;;;;;;;2.63;2.30;;;;;;;;;;5088841;28;20228;-59
2022/03/08 13:07:08;;;;;;;3.97;2.83;;;;;;;;;;5088939;28;20541;-59
2022/03/08 13:09:50;;;;;;;2.30;2.10;;;;;;;;;;5088291;28;21344;-58
2022/03/08 13:12:17;;;;;;;3.13;2.30;;;;;;;;;;5088654;28;20282;-59
2022/03/08 13:15:05;;;;;;;7.03;1.53;;;;;;;;;;5088506;28;20218;-57
2022/03/08 13:17:31;;;;;;;1.90;1.07;;;;;;;;;;5088305;28;20203;-57
2022/03/08 13:19:57;;;;;;;2.67;1.47;;;;;;;;;;5088542;28;20202;-58
2022/03/08 13:22:23;;;;;;;3.50;1.67;;;;;;;;;;5087986;28;20227;-58
2022/03/08 13:25:04;;;;;;;7.73;1.50;;;;;;;;;;5088293;28;20229;-58
2022/03/08 13:27:30;;;;;;;5.23;1.27;;;;;;;;;;5088027;28;20226;-58
2022/03/08 13:30:12;;;;;;;1.63;1.30;;;;;;;;;;5087697;28;20197;-58
2022/03/08 13:32:41;;;;;;;1.63;1.10;;;;;;;;;;5086140;28;20191;-58
2022/03/08 13:35:07;;;;;;;1.40;1.20;;;;;;;;;;5075342;28;20214;-58
2022/03/08 13:37:44;;;;;;;1.40;1.00;;;;;;;;;;5074222;28;20195;-58
2022/03/08 13:40:23;;;;;;;1.67;1.30;;;;;;;;;;5074395;28;20202;-59
2022/03/08 13:42:49;;;;;;;2.60;1.20;;;;;;;;;;5074175;28;20231;-58
2022/03/08 13:45:15;;;;;;;1.63;1.20;;;;;;;;;;5074218;28;20215;-59
2022/03/08 13:47:44;;;;;;;1.17;1.10;;;;;;;;;;5074197;28;20242;-58
2022/03/08 13:50:10;;;;;;;1.47;1.27;;;;;;;;;;5074331;28;20696;-58
2022/03/08 13:52:36;;;;;;;2.97;1.03;;;;;;;;;;5074085;28;20461;-58
2022/03/08 13:55:04;;;;;;;3.23;1.00;;;;;;;;;;5073982;28;20196;-58
2022/03/08 13:57:30;;;;;;;3.23;1.40;;;;;;;;;;5074031;28;20207;-58
2022/03/08 13:59:56;;;;;;;3.50;1.30;;;;;;;;;;5073907;28;20291;-58
2022/03/08 14:02:22;;;;;;;1.20;1.10;;;;;;;;;;5073874;28;20589;-58
2022/03/08 14:04:49;;;;;;;3.23;1.20;;;;;;;;;;5073890;28;20203;-58
2022/03/08 14:07:22;;;;;;;1.33;1.20;;;;;;;;;;5073947;28;20260;-58
2022/03/08 14:09:55;;;;;;;2.83;1.47;;;;;;;;;;5073833;28;20202;-59
2022/03/08 14:12:23;;;;;;;1.57;1.23;;;;;;;;;;5073641;28;20249;-58
2022/03/08 14:15:02;;;;;;;2.77;1.13;;;;;;;;;;5073642;28;20245;-58
2022/03/08 14:17:31;;;;;;;5.00;1.60;;;;;;;;;;5073558;28;20684;-59
2022/03/08 14:19:58;;;;;;;2.17;1.40;;;;;;;;;;5073717;28;20205;-59
2022/03/08 14:22:24;;;;;;;2.10;1.20;;;;;;;;;;5073184;28;20247;-58
2022/03/08 14:25:00;;;;;;;2.57;1.03;;;;;;;;;;5073375;28;20219;-57
2022/03/08 14:27:26;;;;;;;3.37;1.30;;;;;;;;;;5073326;28;20666;-58
2022/03/08 14:29:59;;;;;;;2.07;1.43;;;;;;;;;;5073339;28;20195;-58
2022/03/08 14:32:30;;;;;;;1.83;1.40;;;;;;;;;;5073143;28;20539;-57
2022/03/08 14:35:07;;;;;;;2.03;1.10;;;;;;;;;;5073264;28;20551;-58